sensor_id;sensor_type;location;lat;lon;timestamp;pressure;altitude;pressure_sealevel;temperature;humidity
18504;BME280;9381;54.244;10.074;2023-09-30T00:03:51;101516.13;;;15.46;100.00
18504;BME280;9381;54.244;10.074;2023-09-30T00:08:51;101512.31;;;15.47;100.00
18504;BME280;9381;54.244;10.074;2023-09-30T00:13:52;101521.88;;;15.38;100.00
18504;BME280;9381;54.244;10.074;2023-09-30T00:18:52;101526.63;;;15.42;100.00
18504;BME280;9381;54.244;10.074;2023-09-30T00:23:54;101522.59;;;15.33;100.00
18504;BME280;9381;54.244;10.074;2023-09-30T00:28:54;101542.31;;;15.29;100.00
18504;BME280;9381;54.244;10.074;2023-09-30T00:33:54;101537.78;;;15.05;100.00
18504;BME280;9381;54.244;10.074;2023-09-30T00:38:54;101541.38;;;14.99;100.00
18504;BME280;9381;54.244;10.074;2023-09-30T00:43:55;101538.22;;;14.84;100.00
18504;BME280;9381;54.244;10.074;2023-09-30T00:48:57;101544.34;;;14.97;100.00
18504;BME280;9381;54.244;10.074;2023-09-30T00:53:59;101540.19;;;14.95;100.00
18504;BME280;9381;54.244;10.074;2023-09-30T00:59:00;101545.31;;;14.85;100.00
18504;BME280;9381;54.244;10.074;2023-09-30T01:04:01;101550.31;;;15.06;100.00
18504;BME280;9381;54.244;10.074;2023-09-30T01:09:01;101547.69;;;14.99;100.00
18504;BME280;9381;54.244;10.074;2023-09-30T01:14:01;101557.59;;;14.94;100.00
18504;BME280;9381;54.244;10.074;2023-09-30T01:19:02;101552.28;;;14.99;100.00
18504;BME280;9381;54.244;10.074;2023-09-30T01:24:03;101549.25;;;15.07;100.00
18504;BME280;9381;54.244;10.074;2023-09-30T01:29:03;101541.69;;;15.09;100.00
18504;BME280;9381;54.244;10.074;2023-09-30T01:34:04;101554.72;;;15.25;100.00
18504;BME280;9381;54.244;10.074;2023-09-30T01:39:04;101539.44;;;15.24;100.00
18504;BME280;9381;54.244;10.074;2023-09-30T01:44:05;101546.25;;;15.15;100.00
18504;BME280;9381;54.244;10.074;2023-09-30T01:49:05;101553.06;;;15.06;100.00
18504;BME280;9381;54.244;10.074;2023-09-30T01:54:05;101549.81;;;14.97;100.00
18504;BME280;9381;54.244;10.074;2023-09-30T01:59:06;101549.03;;;14.90;100.00
18504;BME280;9381;54.244;10.074;2023-09-30T02:04:06;101566.38;;;14.96;100.00
18504;BME280;9381;54.244;10.074;2023-09-30T02:09:06;101576.59;;;15.00;100.00
18504;BME280;9381;54.244;10.074;2023-09-30T02:14:09;101574.06;;;14.99;100.00
18504;BME280;9381;54.244;10.074;2023-09-30T02:19:11;101566.50;;;15.01;100.00
18504;BME280;9381;54.244;10.074;2023-09-30T02:24:13;101569.09;;;14.96;100.00
18504;BME280;9381;54.244;10.074;2023-09-30T02:29:13;101571.13;;;15.00;100.00
18504;BME280;9381;54.244;10.074;2023-09-30T02:34:13;101569.97;;;14.90;100.00
18504;BME280;9381;54.244;10.074;2023-09-30T02:39:14;101575.31;;;15.03;100.00
18504;BME280;9381;54.244;10.074;2023-09-30T02:44:16;101574.06;;;14.99;100.00
18504;BME280;9381;54.244;10.074;2023-09-30T02:49:16;101574.53;;;14.96;100.00
18504;BME280;9381;54.244;10.074;2023-09-30T02:54:17;101564.69;;;14.95;100.00
18504;BME280;9381;54.244;10.074;2023-09-30T02:59:17;101566.88;;;14.86;100.00
18504;BME280;9381;54.244;10.074;2023-09-30T03:04:18;101577.00;;;14.55;100.00
18504;BME280;9381;54.244;10.074;2023-09-30T03:09:19;101582.75;;;14.41;100.00
18504;BME280;9381;54.244;10.074;2023-09-30T03:14:20;101584.13;;;14.25;100.00
18504;BME280;9381;54.244;10.074;2023-09-30T03:19:20;101594.56;;;14.35;100.00
18504;BME280;9381;54.244;10.074;2023-09-30T03:24:21;101585.00;;;14.50;100.00
18504;BME280;9381;54.244;10.074;2023-09-30T03:29:21;101582.00;;;14.58;100.00
18504;BME280;9381;54.244;10.074;2023-09-30T03:34:22;101585.00;;;14.50;100.00
18504;BME280;9381;54.244;10.074;2023-09-30T03:39:22;101589.06;;;14.41;100.00
18504;BME280;9381;54.244;10.074;2023-09-30T03:44:27;101596.03;;;14.31;100.00
18504;BME280;9381;54.244;10.074;2023-09-30T03:49:28;101586.06;;;14.18;100.00
18504;BME280;9381;54.244;10.074;2023-09-30T03:54:28;101594.88;;;14.20;100.00
18504;BME280;9381;54.244;10.074;2023-09-30T03:59:29;101594.06;;;14.07;100.00
18504;BME280;9381;54.244;10.074;2023-09-30T04:04:30;101602.91;;;13.96;100.00
18504;BME280;9381;54.244;10.074;2023-09-30T04:09:32;101611.59;;;13.80;100.00
18504;BME280;9381;54.244;10.074;2023-09-30T04:14:32;101602.59;;;13.79;100.00
18504;BME280;9381;54.244;10.074;2023-09-30T04:19:32;101595.38;;;13.98;100.00
18504;BME280;9381;54.244;10.074;2023-09-30T04:24:33;101616.38;;;13.84;100.00
18504;BME280;9381;54.244;10.074;2023-09-30T04:29:34;101618.63;;;13.94;100.00
18504;BME280;9381;54.244;10.074;2023-09-30T04:34:35;101623.00;;;14.01;100.00
18504;BME280;9381;54.244;10.074;2023-09-30T04:39:35;101628.03;;;13.91;100.00
18504;BME280;9381;54.244;10.074;2023-09-30T04:44:35;101624.69;;;13.89;100.00
18504;BME280;9381;54.244;10.074;2023-09-30T04:49:37;101625.94;;;13.93;100.00
18504;BME280;9381;54.244;10.074;2023-09-30T04:54:38;101639.75;;;13.92;100.00
18504;BME280;9381;54.244;10.074;2023-09-30T04:59:38;101632.25;;;13.87;100.00
18504;BME280;9381;54.244;10.074;2023-09-30T05:04:39;101648.13;;;13.90;100.00
18504;BME280;9381;54.244;10.074;2023-09-30T05:09:39;101638.66;;;13.99;100.00
18504;BME280;9381;54.244;10.074;2023-09-30T05:14:39;101640.53;;;14.05;100.00
18504;BME280;9381;54.244;10.074;2023-09-30T05:19:40;101643.69;;;13.96;100.00
18504;BME280;9381;54.244;10.074;2023-09-30T05:24:40;101666.31;;;13.96;100.00
18504;BME280;9381;54.244;10.074;2023-09-30T05:29:40;101657.56;;;13.81;100.00
18504;BME280;9381;54.244;10.074;2023-09-30T05:34:41;101660.59;;;14.11;100.00
18504;BME280;9381;54.244;10.074;2023-09-30T05:39:41;101668.94;;;14.16;100.00
18504;BME280;9381;54.244;10.074;2023-09-30T05:44:41;101668.09;;;14.15;100.00
18504;BME280;9381;54.244;10.074;2023-09-30T05:49:43;101674.59;;;14.14;100.00
18504;BME280;9381;54.244;10.074;2023-09-30T05:54:43;101680.28;;;14.06;100.00
18504;BME280;9381;54.244;10.074;2023-09-30T05:59:43;101678.13;;;14.15;100.00
18504;BME280;9381;54.244;10.074;2023-09-30T06:04:46;101692.00;;;14.07;100.00
18504;BME280;9381;54.244;10.074;2023-09-30T06:09:46;101697.41;;;14.13;100.00
18504;BME280;9381;54.244;10.074;2023-09-30T06:14:50;101708.69;;;14.23;100.00
18504;BME280;9381;54.244;10.074;2023-09-30T06:19:51;101712.63;;;14.34;100.00
18504;BME280;9381;54.244;10.074;2023-09-30T06:24:51;101710.28;;;14.37;100.00
18504;BME280;9381;54.244;10.074;2023-09-30T06:29:52;101714.47;;;14.40;100.00
18504;BME280;9381;54.244;10.074;2023-09-30T06:34:53;101718.53;;;14.62;100.00
18504;BME280;9381;54.244;10.074;2023-09-30T06:39:53;101707.41;;;14.63;100.00
18504;BME280;9381;54.244;10.074;2023-09-30T06:44:53;101723.84;;;14.81;100.00
18504;BME280;9381;54.244;10.074;2023-09-30T06:49:53;101718.00;;;15.33;100.00
18504;BME280;9381;54.244;10.074;2023-09-30T06:54:55;101726.78;;;15.35;100.00
18504;BME280;9381;54.244;10.074;2023-09-30T06:59:55;101724.66;;;15.37;100.00
18504;BME280;9381;54.244;10.074;2023-09-30T07:04:55;101719.13;;;15.68;100.00
18504;BME280;9381;54.244;10.074;2023-09-30T07:09:56;101725.94;;;15.59;100.00
18504;BME280;9381;54.244;10.074;2023-09-30T07:14:58;101729.88;;;15.63;100.00
18504;BME280;9381;54.244;10.074;2023-09-30T07:19:59;101749.44;;;15.78;100.00
18504;BME280;9381;54.244;10.074;2023-09-30T07:24:59;101744.75;;;15.67;100.00
18504;BME280;9381;54.244;10.074;2023-09-30T07:30:00;101749.88;;;16.11;100.00
18504;BME280;9381;54.244;10.074;2023-09-30T07:35:00;101743.38;;;16.30;100.00
18504;BME280;9381;54.244;10.074;2023-09-30T07:40:00;101758.41;;;16.39;100.00
18504;BME280;9381;54.244;10.074;2023-09-30T07:45:01;101757.56;;;16.38;100.00
18504;BME280;9381;54.244;10.074;2023-09-30T07:50:03;101769.53;;;16.55;100.00
18504;BME280;9381;54.244;10.074;2023-09-30T07:55:09;101782.59;;;16.83;100.00
18504;BME280;9381;54.244;10.074;2023-09-30T08:00:10;101774.88;;;16.80;100.00
18504;BME280;9381;54.244;10.074;2023-09-30T08:05:14;101778.84;;;17.36;100.00
18504;BME280;9381;54.244;10.074;2023-09-30T08:10:15;101774.34;;;17.65;100.00
18504;BME280;9381;54.244;10.074;2023-09-30T08:15:17;101774.00;;;17.73;100.00
18504;BME280;9381;54.244;10.074;2023-09-30T08:20:17;101770.88;;;18.03;100.00
18504;BME280;9381;54.244;10.074;2023-09-30T08:25:18;101781.56;;;18.39;100.00
18504;BME280;9381;54.244;10.074;2023-09-30T08:30:19;101781.31;;;18.29;100.00
18504;BME280;9381;54.244;10.074;2023-09-30T08:35:19;101797.50;;;18.42;100.00
18504;BME280;9381;54.244;10.074;2023-09-30T08:40:21;101800.06;;;18.60;98.83
18504;BME280;9381;54.244;10.074;2023-09-30T08:45:21;101800.34;;;18.75;97.31
18504;BME280;9381;54.244;10.074;2023-09-30T08:50:22;101801.56;;;18.79;97.11
18504;BME280;9381;54.244;10.074;2023-09-30T08:55:24;101795.53;;;19.38;95.24
18504;BME280;9381;54.244;10.074;2023-09-30T09:00:24;101786.47;;;19.54;93.57
18504;BME280;9381;54.244;10.074;2023-09-30T09:05:24;101792.69;;;19.66;94.00
18504;BME280;9381;54.244;10.074;2023-09-30T09:10:25;101793.75;;;19.98;91.67
18504;BME280;9381;54.244;10.074;2023-09-30T09:15:28;101802.50;;;19.95;91.08
18504;BME280;9381;54.244;10.074;2023-09-30T09:20:29;101793.59;;;19.88;90.97
18504;BME280;9381;54.244;10.074;2023-09-30T09:25:38;101794.94;;;20.40;90.77
18504;BME280;9381;54.244;10.074;2023-09-30T09:30:38;101799.56;;;20.02;90.91
18504;BME280;9381;54.244;10.074;2023-09-30T09:35:47;101796.44;;;20.53;88.11
18504;BME280;9381;54.244;10.074;2023-09-30T09:40:48;101798.81;;;20.44;86.71
18504;BME280;9381;54.244;10.074;2023-09-30T09:45:48;101804.50;;;20.38;86.97
18504;BME280;9381;54.244;10.074;2023-09-30T09:50:49;101801.22;;;20.19;87.57
18504;BME280;9381;54.244;10.074;2023-09-30T09:55:52;101802.75;;;20.10;87.77
18504;BME280;9381;54.244;10.074;2023-09-30T10:00:55;101808.44;;;19.54;89.92
18504;BME280;9381;54.244;10.074;2023-09-30T10:05:56;101797.25;;;19.94;91.17
18504;BME280;9381;54.244;10.074;2023-09-30T10:10:57;101803.78;;;20.47;86.66
18504;BME280;9381;54.244;10.074;2023-09-30T10:15:59;101815.25;;;19.85;90.75
18504;BME280;9381;54.244;10.074;2023-09-30T10:21:07;101821.63;;;19.90;93.14
18504;BME280;9381;54.244;10.074;2023-09-30T10:31:17;101827.16;;;20.28;91.37
18504;BME280;9381;54.244;10.074;2023-09-30T10:36:36;101828.69;;;20.19;89.66
18504;BME280;9381;54.244;10.074;2023-09-30T10:46:41;101846.22;;;20.56;91.76
18504;BME280;9381;54.244;10.074;2023-09-30T10:51:41;101838.69;;;22.00;83.12
18504;BME280;9381;54.244;10.074;2023-09-30T10:56:42;101829.34;;;23.34;76.37
18504;BME280;9381;54.244;10.074;2023-09-30T11:01:42;101819.06;;;24.30;68.94
18504;BME280;9381;54.244;10.074;2023-09-30T11:06:44;101829.22;;;25.17;66.96
18504;BME280;9381;54.244;10.074;2023-09-30T11:11:46;101831.16;;;25.22;60.79
18504;BME280;9381;54.244;10.074;2023-09-30T11:16:51;101835.72;;;23.95;64.29
18504;BME280;9381;54.244;10.074;2023-09-30T11:21:53;101838.25;;;22.65;67.50
18504;BME280;9381;54.244;10.074;2023-09-30T11:26:53;101830.09;;;23.10;66.85
18504;BME280;9381;54.244;10.074;2023-09-30T11:31:53;101834.56;;;23.21;67.95
18504;BME280;9381;54.244;10.074;2023-09-30T11:36:54;101839.06;;;23.97;63.33
18504;BME280;9381;54.244;10.074;2023-09-30T11:41:55;101831.75;;;24.45;61.88
18504;BME280;9381;54.244;10.074;2023-09-30T11:46:59;101843.47;;;23.43;60.04
18504;BME280;9381;54.244;10.074;2023-09-30T11:52:02;101836.28;;;24.02;60.98
18504;BME280;9381;54.244;10.074;2023-09-30T11:57:03;101828.56;;;24.87;58.99
18504;BME280;9381;54.244;10.074;2023-09-30T12:02:03;101835.72;;;24.15;61.25
18504;BME280;9381;54.244;10.074;2023-09-30T12:07:05;101827.25;;;24.74;61.63
18504;BME280;9381;54.244;10.074;2023-09-30T12:12:08;101834.78;;;25.12;57.91
18504;BME280;9381;54.244;10.074;2023-09-30T12:17:14;101840.13;;;24.21;59.81
18504;BME280;9381;54.244;10.074;2023-09-30T12:22:14;101831.13;;;22.84;63.54
18504;BME280;9381;54.244;10.074;2023-09-30T12:27:14;101835.69;;;22.53;64.94
18504;BME280;9381;54.244;10.074;2023-09-30T12:32:17;101837.50;;;22.33;66.65
18504;BME280;9381;54.244;10.074;2023-09-30T12:37:18;101821.22;;;22.93;68.07
18504;BME280;9381;54.244;10.074;2023-09-30T12:42:18;101805.34;;;23.90;65.50
18504;BME280;9381;54.244;10.074;2023-09-30T12:47:19;101822.41;;;24.27;62.22
18504;BME280;9381;54.244;10.074;2023-09-30T12:52:20;101816.59;;;24.33;59.38
18504;BME280;9381;54.244;10.074;2023-09-30T12:57:21;101822.34;;;24.46;58.48
18504;BME280;9381;54.244;10.074;2023-09-30T13:02:21;101804.09;;;24.45;59.08
18504;BME280;9381;54.244;10.074;2023-09-30T13:07:22;101813.09;;;23.98;60.22
18504;BME280;9381;54.244;10.074;2023-09-30T13:12:22;101808.00;;;23.00;64.03
18504;BME280;9381;54.244;10.074;2023-09-30T13:17:22;101826.94;;;22.20;67.28
18504;BME280;9381;54.244;10.074;2023-09-30T13:22:23;101823.28;;;21.68;69.59
18504;BME280;9381;54.244;10.074;2023-09-30T13:27:24;101839.16;;;21.61;68.14
18504;BME280;9381;54.244;10.074;2023-09-30T13:32:25;101843.44;;;21.47;67.40
18504;BME280;9381;54.244;10.074;2023-09-30T13:37:25;101827.44;;;21.44;67.88
18504;BME280;9381;54.244;10.074;2023-09-30T13:42:30;101837.66;;;21.17;68.83
18504;BME280;9381;54.244;10.074;2023-09-30T13:47:30;101832.34;;;21.11;69.37
18504;BME280;9381;54.244;10.074;2023-09-30T13:52:31;101837.13;;;21.20;69.26
18504;BME280;9381;54.244;10.074;2023-09-30T13:57:32;101823.31;;;21.15;68.64
18504;BME280;9381;54.244;10.074;2023-09-30T14:02:32;101833.44;;;21.36;68.70
18504;BME280;9381;54.244;10.074;2023-09-30T14:07:33;101834.00;;;21.38;68.81
18504;BME280;9381;54.244;10.074;2023-09-30T14:12:33;101831.72;;;21.30;69.08
18504;BME280;9381;54.244;10.074;2023-09-30T14:17:34;101828.09;;;20.98;70.69
18504;BME280;9381;54.244;10.074;2023-09-30T14:22:37;101828.13;;;21.03;71.34
18504;BME280;9381;54.244;10.074;2023-09-30T14:27:38;101844.69;;;21.08;70.66
18504;BME280;9381;54.244;10.074;2023-09-30T14:32:38;101832.03;;;21.07;70.09
18504;BME280;9381;54.244;10.074;2023-09-30T14:37:38;101837.78;;;21.06;69.48
18504;BME280;9381;54.244;10.074;2023-09-30T14:42:39;101842.41;;;21.00;69.77
18504;BME280;9381;54.244;10.074;2023-09-30T14:47:39;101838.56;;;21.01;70.25
18504;BME280;9381;54.244;10.074;2023-09-30T14:52:40;101845.63;;;20.92;70.70
18504;BME280;9381;54.244;10.074;2023-09-30T14:57:40;101825.66;;;20.80;69.22
18504;BME280;9381;54.244;10.074;2023-09-30T15:02:40;101823.47;;;20.82;69.62
18504;BME280;9381;54.244;10.074;2023-09-30T15:07:41;101828.53;;;20.90;70.10
18504;BME280;9381;54.244;10.074;2023-09-30T15:12:42;101828.84;;;20.72;70.90
18504;BME280;9381;54.244;10.074;2023-09-30T15:17:42;101826.78;;;20.84;71.65
18504;BME280;9381;54.244;10.074;2023-09-30T15:22:42;101835.63;;;20.65;72.93
18504;BME280;9381;54.244;10.074;2023-09-30T15:27:42;101831.78;;;20.44;73.41
18504;BME280;9381;54.244;10.074;2023-09-30T15:32:43;101825.16;;;20.40;73.40
18504;BME280;9381;54.244;10.074;2023-09-30T15:37:43;101828.81;;;20.29;73.43
18504;BME280;9381;54.244;10.074;2023-09-30T15:42:43;101827.22;;;20.12;74.17
18504;BME280;9381;54.244;10.074;2023-09-30T15:47:45;101818.81;;;20.02;75.03
18504;BME280;9381;54.244;10.074;2023-09-30T15:52:45;101820.47;;;20.03;75.65
18504;BME280;9381;54.244;10.074;2023-09-30T15:57:45;101803.88;;;19.98;75.71
18504;BME280;9381;54.244;10.074;2023-09-30T16:02:45;101804.66;;;19.93;76.56
18504;BME280;9381;54.244;10.074;2023-09-30T16:07:46;101805.25;;;19.79;76.77
18504;BME280;9381;54.244;10.074;2023-09-30T16:12:46;101819.66;;;19.69;77.52
18504;BME280;9381;54.244;10.074;2023-09-30T16:17:46;101822.50;;;19.58;78.27
18504;BME280;9381;54.244;10.074;2023-09-30T16:22:47;101828.22;;;19.56;78.65
18504;BME280;9381;54.244;10.074;2023-09-30T16:27:48;101827.22;;;19.62;78.57
18504;BME280;9381;54.244;10.074;2023-09-30T16:32:48;101833.75;;;19.28;80.62
18504;BME280;9381;54.244;10.074;2023-09-30T16:37:49;101831.81;;;19.12;81.25
18504;BME280;9381;54.244;10.074;2023-09-30T16:42:49;101841.91;;;18.95;81.48
18504;BME280;9381;54.244;10.074;2023-09-30T16:47:49;101841.28;;;18.93;80.87
18504;BME280;9381;54.244;10.074;2023-09-30T16:52:50;101836.22;;;18.85;81.19
18504;BME280;9381;54.244;10.074;2023-09-30T16:57:50;101840.19;;;18.66;81.42
18504;BME280;9381;54.244;10.074;2023-09-30T17:02:50;101834.75;;;18.55;82.28
18504;BME280;9381;54.244;10.074;2023-09-30T17:07:50;101834.78;;;18.43;83.17
18504;BME280;9381;54.244;10.074;2023-09-30T17:12:51;101844.09;;;18.42;83.14
18504;BME280;9381;54.244;10.074;2023-09-30T17:17:51;101846.47;;;18.39;83.04
18504;BME280;9381;54.244;10.074;2023-09-30T17:22:51;101852.28;;;18.42;83.18
18504;BME280;9381;54.244;10.074;2023-09-30T17:27:52;101854.66;;;18.27;83.56
18504;BME280;9381;54.244;10.074;2023-09-30T17:32:52;101859.41;;;18.20;84.09
18504;BME280;9381;54.244;10.074;2023-09-30T17:37:52;101863.25;;;17.96;85.08
18504;BME280;9381;54.244;10.074;2023-09-30T17:42:52;101855.50;;;17.93;85.66
18504;BME280;9381;54.244;10.074;2023-09-30T17:47:54;101863.63;;;18.00;85.33
18504;BME280;9381;54.244;10.074;2023-09-30T17:52:54;101851.81;;;17.88;86.34
18504;BME280;9381;54.244;10.074;2023-09-30T17:57:54;101847.28;;;17.93;86.25
18504;BME280;9381;54.244;10.074;2023-09-30T18:02:57;101841.47;;;17.90;86.22
18504;BME280;9381;54.244;10.074;2023-09-30T18:07:57;101840.03;;;17.88;86.50
18504;BME280;9381;54.244;10.074;2023-09-30T18:12:58;101841.81;;;17.71;87.33
18504;BME280;9381;54.244;10.074;2023-09-30T18:18:01;101843.81;;;17.64;88.10
18504;BME280;9381;54.244;10.074;2023-09-30T18:23:01;101843.09;;;17.57;88.44
18504;BME280;9381;54.244;10.074;2023-09-30T18:28:02;101846.03;;;17.44;89.45
18504;BME280;9381;54.244;10.074;2023-09-30T18:33:03;101843.44;;;17.37;89.89
18504;BME280;9381;54.244;10.074;2023-09-30T18:38:04;101840.75;;;17.31;90.22
18504;BME280;9381;54.244;10.074;2023-09-30T18:43:06;101834.78;;;17.22;90.69
18504;BME280;9381;54.244;10.074;2023-09-30T18:48:13;101843.25;;;17.32;90.10
18504;BME280;9381;54.244;10.074;2023-09-30T18:53:14;101850.47;;;17.27;90.21
18504;BME280;9381;54.244;10.074;2023-09-30T18:58:15;101845.31;;;17.37;89.57
18504;BME280;9381;54.244;10.074;2023-09-30T19:03:16;101841.94;;;17.35;89.73
18504;BME280;9381;54.244;10.074;2023-09-30T19:08:16;101848.00;;;17.25;90.28
18504;BME280;9381;54.244;10.074;2023-09-30T19:13:17;101841.41;;;17.15;90.57
18504;BME280;9381;54.244;10.074;2023-09-30T19:18:17;101847.44;;;17.05;91.79
18504;BME280;9381;54.244;10.074;2023-09-30T19:23:17;101854.66;;;17.00;92.24
18504;BME280;9381;54.244;10.074;2023-09-30T19:28:17;101851.81;;;16.95;93.30
18504;BME280;9381;54.244;10.074;2023-09-30T19:33:18;101852.44;;;16.79;94.64
18504;BME280;9381;54.244;10.074;2023-09-30T19:38:18;101849.91;;;16.77;96.00
18504;BME280;9381;54.244;10.074;2023-09-30T19:43:19;101847.56;;;16.81;96.77
18504;BME280;9381;54.244;10.074;2023-09-30T19:48:20;101848.34;;;16.70;97.54
18504;BME280;9381;54.244;10.074;2023-09-30T19:53:20;101843.25;;;16.73;98.60
18504;BME280;9381;54.244;10.074;2023-09-30T19:58:20;101846.50;;;16.82;99.08
18504;BME280;9381;54.244;10.074;2023-09-30T20:03:21;101831.78;;;16.83;98.84
18504;BME280;9381;54.244;10.074;2023-09-30T20:08:21;101841.78;;;16.89;98.63
18504;BME280;9381;54.244;10.074;2023-09-30T20:13:22;101842.38;;;16.91;98.53
18504;BME280;9381;54.244;10.074;2023-09-30T20:18:22;101837.00;;;16.84;99.12
18504;BME280;9381;54.244;10.074;2023-09-30T20:23:22;101837.16;;;16.89;98.87
18504;BME280;9381;54.244;10.074;2023-09-30T20:28:23;101848.16;;;16.83;99.18
18504;BME280;9381;54.244;10.074;2023-09-30T20:33:23;101842.66;;;17.01;98.58
18504;BME280;9381;54.244;10.074;2023-09-30T20:38:23;101841.78;;;16.89;99.45
18504;BME280;9381;54.244;10.074;2023-09-30T20:43:24;101832.03;;;16.93;99.46
18504;BME280;9381;54.244;10.074;2023-09-30T20:48:24;101828.34;;;16.87;99.95
18504;BME280;9381;54.244;10.074;2023-09-30T20:53:26;101830.38;;;16.92;100.00
18504;BME280;9381;54.244;10.074;2023-09-30T20:58:28;101835.03;;;16.91;100.00
18504;BME280;9381;54.244;10.074;2023-09-30T21:03:28;101835.94;;;16.85;100.00
18504;BME280;9381;54.244;10.074;2023-09-30T21:08:28;101836.31;;;16.89;100.00
18504;BME280;9381;54.244;10.074;2023-09-30T21:13:29;101830.84;;;16.89;100.00
18504;BME280;9381;54.244;10.074;2023-09-30T21:18:29;101829.66;;;16.85;100.00
18504;BME280;9381;54.244;10.074;2023-09-30T21:23:30;101829.66;;;16.85;100.00
18504;BME280;9381;54.244;10.074;2023-09-30T21:28:30;101823.44;;;16.78;100.00
18504;BME280;9381;54.244;10.074;2023-09-30T21:33:31;101823.34;;;16.84;100.00
18504;BME280;9381;54.244;10.074;2023-09-30T21:38:31;101831.88;;;16.76;100.00
18504;BME280;9381;54.244;10.074;2023-09-30T21:43:31;101826.44;;;16.58;100.00
18504;BME280;9381;54.244;10.074;2023-09-30T21:48:31;101826.03;;;16.73;100.00
18504;BME280;9381;54.244;10.074;2023-09-30T21:53:34;101828.44;;;16.81;100.00
18504;BME280;9381;54.244;10.074;2023-09-30T21:58:34;101823.72;;;16.88;100.00
18504;BME280;9381;54.244;10.074;2023-09-30T22:03:34;101824.09;;;16.91;100.00
18504;BME280;9381;54.244;10.074;2023-09-30T22:08:35;101829.66;;;16.85;100.00
18504;BME280;9381;54.244;10.074;2023-09-30T22:13:36;101833.78;;;16.76;100.00
18504;BME280;9381;54.244;10.074;2023-09-30T22:18:37;101825.81;;;16.74;100.00
18504;BME280;9381;54.244;10.074;2023-09-30T22:23:38;101823.16;;;16.68;100.00
18504;BME280;9381;54.244;10.074;2023-09-30T22:28:38;101814.56;;;16.82;100.00
18504;BME280;9381;54.244;10.074;2023-09-30T22:33:39;101812.19;;;16.86;100.00
18504;BME280;9381;54.244;10.074;2023-09-30T22:38:39;101819.34;;;16.87;100.00
18504;BME280;9381;54.244;10.074;2023-09-30T22:43:39;101821.31;;;16.80;100.00
18504;BME280;9381;54.244;10.074;2023-09-30T22:48:39;101821.50;;;16.67;100.00
18504;BME280;9381;54.244;10.074;2023-09-30T22:53:40;101812.09;;;16.63;100.00
18504;BME280;9381;54.244;10.074;2023-09-30T22:58:40;101807.31;;;16.58;100.00
18504;BME280;9381;54.244;10.074;2023-09-30T23:03:42;101813.25;;;16.55;100.00
18504;BME280;9381;54.244;10.074;2023-09-30T23:08:43;101815.38;;;16.53;100.00
18504;BME280;9381;54.244;10.074;2023-09-30T23:13:46;101808.31;;;16.46;100.00
18504;BME280;9381;54.244;10.074;2023-09-30T23:18:46;101794.34;;;16.54;100.00
18504;BME280;9381;54.244;10.074;2023-09-30T23:23:47;101794.03;;;16.62;100.00
18504;BME280;9381;54.244;10.074;2023-09-30T23:28:49;101793.28;;;16.55;100.00
18504;BME280;9381;54.244;10.074;2023-09-30T23:33:49;101795.09;;;16.61;100.00
18504;BME280;9381;54.244;10.074;2023-09-30T23:38:49;101794.63;;;16.64;100.00
18504;BME280;9381;54.244;10.074;2023-09-30T23:43:50;101788.44;;;16.57;100.00
18504;BME280;9381;54.244;10.074;2023-09-30T23:48:54;101780.38;;;16.62;100.00
18504;BME280;9381;54.244;10.074;2023-09-30T23:53:55;101778.00;;;16.65;100.00
18504;BME280;9381;54.244;10.074;2023-09-30T23:58:56;101774.09;;;16.61;100.00
